• Join FlightAware (Why Join?)
  • Login
  • US Flag 
09:24PM EST


 

Airport Tracker/Info


-or-


 

Live Flight TrackerFlight Track Log ✈ N326CP ✈ 17-Apr-2014 ✈ KJVW - KIWS

Flight Track Log - Related Links

Times and Time Zones

All times are in EDT time to prevent confusion due to time zone crossing. See the N326CP flight status page for this flight to view local times or setup timezone preferences in your user account.

Time Position Orientation Groundspeed Altitude Reporting Facility
EDT Latitude Longitude Course Direction KTS MPH feet Rate Location/Type
07:24PM 32.2719 -90.4894 256° West 143 165 2,300  Level Memphis Center
07:25PM 32.2519 -90.5311 240° Southwest 143 165 3,200 840 Climbing Memphis Center
07:26PM 32.2344 -90.5717 243° Southwest 143 165 4,100 840 Climbing Memphis Center
07:28PM 32.2169 -90.6111 242° Southwest 142 163 5,000 780 Climbing Memphis Center
07:29PM 32.1983 -90.6494 240° Southwest 141 162 5,800 480 Climbing Memphis Center
07:30PM 32.1750 -90.7022 242° Southwest 144 166 6,000 60 Climbing Memphis Center
07:31PM 32.1511 -90.7525 241° Southwest 162 186 6,000  Level Memphis Center
07:32PM 32.1292 -90.8061 244° Southwest 173 199 6,000  Level Memphis Center
07:33PM 32.1081 -90.8564 244° Southwest 175 201 6,000  Level Memphis Center
07:34PM 32.0869 -90.9000 240° Southwest 167 192 6,000  Level Memphis Center
07:35PM 32.0636 -90.9544 243° Southwest 160 184 6,000  Level Memphis Center
07:36PM 32.0425 -90.9983 240° Southwest 160 184 6,000 -300 Level Memphis Center
07:37PM 32.0217 -91.0444 242° Southwest 160 184 5,500 -540 Descending Memphis Center
07:38PM 32.0008 -91.0969 245° Southwest 167 192 5,000 -540 Descending Memphis Center
07:39PM 31.9758 -91.1486 240° Southwest 176 203 4,500 -540 Descending Memphis Center
07:40PM 31.9483 -91.2114 243° Southwest 177 204 4,000 -300 Descending Memphis Center
07:41PM 31.9272 -91.2608 243° Southwest 177 204 4,000  Level Memphis Center
07:42PM 31.9050 -91.3078 241° Southwest 171 197 4,000  Level Memphis Center
07:43PM 31.8817 -91.3589 242° Southwest 168 193 4,000  Level Memphis Center
07:44PM 31.8592 -91.4125 244° Southwest 190 219 4,000  Level Houston Center
07:45PM 31.8383 -91.4603 243° Southwest 164 189 4,000  Level Houston Center
07:46PM 31.8175 -91.5078 243° Southwest 164 189 4,000  Level Houston Center
07:47PM 31.7903 -91.5639 240° Southwest 164 189 4,000  Level Houston Center
07:48PM 31.7772 -91.5933 242° Southwest 166 191 4,000  Level Houston Center
07:48PM 31.7681 -91.6114 239° Southwest 164 189 4,000  Level Houston Center
07:49PM 31.7464 -91.6603 242° Southwest 164 189 4,000  Level Houston Center
07:50PM 31.7239 -91.7072 241° Southwest 165 190 4,000  Level Houston Center
07:51PM 31.7014 -91.7544 241° Southwest 165 190 4,000  Level Houston Center
07:52PM 31.6794 -91.8017 241° Southwest 165 190 4,000  Level Houston Center
07:53PM 31.6578 -91.8503 242° Southwest 166 191 4,000  Level Houston Center
07:54PM 31.6303 -91.9069 240° Southwest 167 192 4,000  Level Houston Center
07:56PM 31.6106 -91.9550 244° Southwest 165 190 4,000  Level Houston Center
07:57PM 31.5883 -92.0031 242° Southwest 165 190 4,000  Level Houston Center
07:58PM 31.5653 -92.0528 241° Southwest 169 194 4,000  Level Houston Center
07:59PM 31.5436 -92.1014 242° Southwest 169 194 4,000  Level Houston Center
08:00PM 31.5197 -92.1500 240° Southwest 169 194 4,000  Level Houston Center
08:00PM 31.5169 -92.1578 247° West 166 191 4,000  Level Houston Center
08:01PM 31.4981 -92.1986 242° Southwest 170 196 4,000  Level Houston Center
08:01PM 31.4942 -92.2064 240° Southwest 166 191 4,000  Level Houston Center
08:02PM 31.4722 -92.2522 241° Southwest 170 196 4,000  Level Houston Center
08:03PM 31.4464 -92.3011 238° Southwest 169 194 4,000  Level Houston Center
08:03PM 31.4475 -92.3019 327° Northwest 166 191 4,000  Level Houston Center
08:04PM 31.4222 -92.3478 237° Southwest 166 191 4,000  Level Houston Center
08:05PM 31.3986 -92.3983 241° Southwest 170 196 4,000  Level Houston Center
08:05PM 31.3956 -92.4067 247° West 167 192 4,000  Level Houston Center
08:06PM 31.3767 -92.4467 241° Southwest 173 199 4,000  Level Houston Center
08:06PM 31.3725 -92.4558 242° Southwest 167 192 4,000  Level Houston Center
08:07PM 31.3564 -92.4875 239° Southwest 173 199 4,000  Level Houston Center
08:07PM 31.3497 -92.5044 245° Southwest 169 194 4,000  Level Houston Center
08:08PM 31.3328 -92.5408 241° Southwest 174 200 4,000  Level Houston Center
08:08PM 31.3278 -92.5508 240° Southwest 169 194 4,000  Level Houston Center
08:09PM 31.3089 -92.5944 243° Southwest 176 203 4,000  Level Houston Center
08:09PM 31.3014 -92.6094 240° Southwest 170 196 4,000  Level Houston Center
08:10PM 31.2869 -92.6403 241° Southwest 175 201 4,000  Level Houston Center
08:10PM 31.2783 -92.6589 242° Southwest 173 199 4,000  Level Houston Center
08:11PM 31.2631 -92.6936 243° Southwest 177 204 4,000  Level Houston Center
08:11PM 31.2547 -92.7094 238° Southwest 174 200 4,000  Level Houston Center
08:12PM 31.2392 -92.7419 241° Southwest 176 203 4,000  Level Houston Center
08:12PM 31.2317 -92.7592 243° Southwest 174 200 4,000  Level Houston Center
08:13PM 31.2153 -92.7928 240° Southwest 174 200 4,000  Level Houston Center
08:13PM 31.2083 -92.8086 243° Southwest 174 200 4,000  Level Houston Center
08:14PM 31.1931 -92.8411 241° Southwest 172 198 4,000  Level Houston Center
08:14PM 31.1817 -92.8664 242° Southwest 173 199 4,000  Level Houston Center
08:15PM 31.1692 -92.8917 240° Southwest 169 194 4,000  Level Houston Center
08:15PM 31.1594 -92.9144 243° Southwest 172 198 4,000  Level Houston Center
08:16PM 31.1492 -92.9372 242° Southwest 167 192 4,000  Level Houston Center
08:16PM 31.1367 -92.9619 239° Southwest 171 197 4,000  Level Houston Center
08:17PM 31.1250 -92.9856 240° Southwest 166 191 4,000  Level Houston Center
08:17PM 31.1147 -93.0092 243° Southwest 170 196 4,000  Level Houston Center
08:18PM 31.1031 -93.0361 243° Southwest 165 190 4,000  Level Houston Center
08:18PM 31.0933 -93.0561 240° Southwest 168 193 4,000  Level Houston Center
08:19PM 31.0808 -93.0819 241° Southwest 164 189 4,000  Level Houston Center
08:19PM 31.0658 -93.1114 239° Southwest 167 192 4,000  Level Houston Center
08:20PM 31.0586 -93.1300 246° West 165 190 4,000  Level Houston Center
08:20PM 31.0442 -93.1594 240° Southwest 167 192 4,000  Level Houston Center
08:21PM 31.0364 -93.1756 241° Southwest 165 190 4,000  Level Houston Center
08:21PM 31.0219 -93.2061 241° Southwest 167 192 4,000  Level Houston Center
08:22PM 31.0139 -93.2211 238° Southwest 165 190 4,000  Level Houston Center
08:22PM 30.9997 -93.2525 242° Southwest 166 191 4,000  Level Houston Center
08:23PM 30.9919 -93.2692 241° Southwest 164 189 4,000  Level Houston Center
08:24PM 30.9775 -93.2964 238° Southwest 166 191 4,000  Level Houston Center
08:25PM 30.9519 -93.3519 242° Southwest 166 191 4,000  Level Houston Center
08:26PM 30.9292 -93.3981 240° Southwest 165 190 4,000  Level Houston Center
08:27PM 30.9075 -93.4447 242° Southwest 165 190 4,000  Level Houston Center
08:28PM 30.8856 -93.4919 242° Southwest 166 191 4,000  Level Houston Center
08:29PM 30.8628 -93.5386 240° Southwest 166 191 4,000  Level Houston Center
08:30PM 30.8367 -93.5958 242° Southwest 167 192 4,000  Level Houston Center
08:31PM 30.8139 -93.6422 240° Southwest 166 191 4,000  Level Houston Center
08:32PM 30.7911 -93.6897 241° Southwest 167 192 4,000  Level Houston Center
08:33PM 30.7692 -93.7369 242° Southwest 167 192 4,000  Level Houston Center
08:34PM 30.7467 -93.7847 241° Southwest 168 193 4,000  Level Houston Center
08:35PM 30.7197 -93.8414 241° Southwest 168 193 4,000  Level Houston Center
08:36PM 30.6986 -93.8828 239° Southwest 168 193 4,000  Level Houston Center
08:36PM 30.6958 -93.8883 240° Southwest 168 193 4,000  Level Houston Center
08:37PM 30.6736 -93.9353 241° Southwest 168 193 4,000  Level Houston Center
08:37PM 30.6656 -93.9528 242° Southwest 169 194 4,000  Level Houston Center
08:38PM 30.6514 -93.9822 241° Southwest 168 193 4,000  Level Houston Center
08:38PM 30.6428 -93.9972 236° Southwest 166 191 4,000  Level Houston Center
08:39PM 30.6297 -94.0275 243° Southwest 166 191 4,000  Level Houston Center
08:39PM 30.6206 -94.0464 241° Southwest 164 189 4,000  Level Houston Center
08:40PM 30.5992 -94.0858 238° Southwest 163 188 4,000  Level Houston Center
08:41PM 30.5808 -94.1283 243° Southwest 165 190 4,000  Level Houston Center
08:41PM 30.5733 -94.1428 239° Southwest 163 188 4,000  Level Houston Center
08:42PM 30.5600 -94.1736 243° Southwest 164 189 4,000  Level Houston Center
08:43PM 30.5375 -94.2194 240° Southwest 163 188 4,000  Level Houston Center
08:44PM 30.5147 -94.2664 241° Southwest 164 189 4,000  Level Houston Center
08:44PM 30.5056 -94.2828 237° Southwest 164 189 4,000  Level Houston Center
08:45PM 30.4928 -94.3122 243° Southwest 164 189 4,000  Level Houston Center
08:45PM 30.4828 -94.3294 236° Southwest 164 189 4,000  Level Houston Center
08:46PM 30.4636 -94.3681 240° Southwest 168 193 4,000  Level Houston Center
08:47PM 30.4583 -94.3789 241° Southwest 168 193 4,000  Level Houston Center
08:47PM 30.4417 -94.4144 241° Southwest 168 193 4,000  Level Houston Center
08:49PM 30.4108 -94.4747 239° Southwest 169 194 4,000  Level Houston Center
08:49PM 30.3961 -94.5094 244° Southwest 170 196 4,000  Level Houston Center
08:50PM 30.3883 -94.5236 238° Southwest 170 196 4,000  Level Houston Center
08:50PM 30.3722 -94.5575 241° Southwest 171 197 4,000  Level Houston Center
08:51PM 30.3444 -94.6133 240° Southwest 170 196 4,000  Level Houston Center
08:53PM 30.3203 -94.6628 240° Southwest 174 200 4,000  Level Houston Center
08:54PM 30.3117 -94.7144 259° West 168 193 4,000  Level Houston Center
08:55PM 30.3011 -94.7722 258° West 166 191 4,000  Level Houston Center
08:56PM 30.2900 -94.8319 258° West 169 194 4,000  Level Houston Center
08:57PM 30.2844 -94.8728 261° West 168 193 4,000 -360 Level Houston Center
08:58PM 30.2742 -94.9397 260° West 177 204 3,400 -540 Descending Houston Center
08:59PM 30.2658 -94.9994 261° West 187 215 3,000 -240 Descending Houston Center
09:00PM 30.2606 -95.0558 264° West 171 197 3,000  Level Houston Center
09:01PM 30.2547 -95.1083 263° West 176 203 3,000  Level Houston Center
09:02PM 30.2492 -95.1622 263° West 173 199 3,000  Level Houston Center
09:03PM 30.2425 -95.2225 263° West 173 199 3,000  Level Houston Center
09:04PM 30.2353 -95.2814 262° West 174 200 3,000  Level Houston Center
09:05PM 30.2281 -95.3403 262° West 171 197 3,000  Level Houston Center
09:06PM 30.2206 -95.3969 261° West 174 200 3,000 -300 Level Houston Center
09:07PM 30.2136 -95.4581 263° West 190 219 2,500 -480 Descending Houston Center
09:08PM 30.2081 -95.5103 263° West 185 213 2,100 -300 Descending Houston Center
09:09PM 30.1783 -95.5567 233° Southwest 164 189 2,000 -60 Descending Houston Center
09:10PM 30.1483 -95.5964 229° Southwest 165 190 2,000  Level Houston Center
09:10PM 30.1439 -95.6008 221° Southwest 169 194 2,000  Level Houston Center
09:11PM 30.1181 -95.6339 228° Southwest 158 182 2,000  Level Houston Center
09:11PM 30.1131 -95.6389 221° Southwest 166 191 2,000  Level Houston Center
09:12PM 30.0861 -95.6739 228° Southwest 146 168 2,000  Level Houston Center
09:13PM 30.0617 -95.7056 228° Southwest 145 167 2,000  Level Houston Center
09:13PM 30.0592 -95.7067 201° Southwest 150 173 2,000  Level Houston Center
09:14PM 30.0292 -95.7431 226° Southwest 145 167 2,000  Level Houston Center
09:15PM 30.0000 -95.7706 219° Southwest 144 166 2,000 -120 Level Houston Center
09:16PM 29.9689 -95.7539 155° Southeast 138 159 1,800 -180 Descending Houston Center
09:17PM 29.9406 -95.7392 156° South 100 115 1,700 -120 Descending Houston Center
09:17PM 29.9344 -95.7353 151° Southeast 125 144 1,700  Level Houston Center
09:18PM 29.9125 -95.7239 156° South 104 120 1,700  Level Houston Center
09:19PM 29.8906 -95.7117 154° Southeast 100 115 1,700  Level Houston Center